createdAt,value
2023-02-25T00:03:20.346Z,10.26
2023-02-25T00:07:23.145Z,10.17
2023-02-25T00:11:26.404Z,10.11
2023-02-25T00:15:28.545Z,10.10
2023-02-25T00:19:30.699Z,9.62
2023-02-25T00:23:32.928Z,9.44
2023-02-25T00:27:35.766Z,9.67
2023-02-25T00:31:38.099Z,9.49
2023-02-25T00:35:41.333Z,9.61
2023-02-25T00:39:43.600Z,9.77
2023-02-25T00:43:54.519Z,9.83
2023-02-25T00:47:56.944Z,9.70
2023-02-25T00:52:00.158Z,9.70
2023-02-25T00:56:02.577Z,9.80
2023-02-25T01:00:11.280Z,9.88
2023-02-25T01:04:13.412Z,9.92
2023-02-25T01:08:20.620Z,10.01
2023-02-25T01:12:24.009Z,9.86
2023-02-25T01:16:31.585Z,9.74
2023-02-25T01:20:38.561Z,9.68
2023-02-25T01:24:42.478Z,9.69
2023-02-25T01:28:45.350Z,9.73
2023-02-25T01:32:47.575Z,9.75
2023-02-25T01:36:49.730Z,9.82
2023-02-25T01:40:58.460Z,9.82
2023-02-25T01:45:33.177Z,9.92
2023-02-25T01:49:44.292Z,9.95
2023-02-25T01:53:47.742Z,9.99
2023-02-25T01:57:50.816Z,10.05
2023-02-25T02:01:53.014Z,10.11
2023-02-25T02:06:10.636Z,10.09
2023-02-25T02:10:15.423Z,10.07
2023-02-25T02:14:31.988Z,10.11
2023-02-25T02:18:36.861Z,10.12
2023-02-25T02:22:57.235Z,10.02
2023-02-25T02:27:10.133Z,10.00
2023-02-25T02:31:26.457Z,9.94
2023-02-25T02:35:52.131Z,9.83
2023-02-25T02:40:15.356Z,9.77
2023-02-25T02:44:31.393Z,9.81
2023-02-25T02:49:04.103Z,9.85
2023-02-25T02:53:13.710Z,9.82
2023-02-25T02:57:17.298Z,9.82
2023-02-25T03:01:26.029Z,9.87
2023-02-25T03:05:33.026Z,9.92
2023-02-25T03:10:02.699Z,10.01
2023-02-25T03:14:08.889Z,10.06
2023-02-25T03:18:21.552Z,10.00
2023-02-25T03:22:29.591Z,9.99
2023-02-25T03:26:33.682Z,10.05
2023-02-25T03:30:44.093Z,10.03
2023-02-25T03:34:49.940Z,9.86
2023-02-25T03:38:57.303Z,9.78
2023-02-25T03:43:11.577Z,9.70
2023-02-25T03:47:15.604Z,9.79
2023-02-25T03:51:24.068Z,9.74
2023-02-25T03:55:29.428Z,9.70
2023-02-25T03:59:32.076Z,9.78
2023-02-25T04:03:34.296Z,9.84
2023-02-25T04:07:36.929Z,9.96
2023-02-25T04:11:39.216Z,9.90
2023-02-25T04:15:42.228Z,9.95
2023-02-25T04:19:44.927Z,9.82
2023-02-25T04:23:47.284Z,9.87
2023-02-25T04:27:49.425Z,9.70
2023-02-25T04:31:52.543Z,9.89
2023-02-25T04:35:54.952Z,9.96
2023-02-25T04:39:57.904Z,9.87
2023-02-25T04:44:00.404Z,9.90
2023-02-25T04:48:02.769Z,9.96
2023-02-25T04:52:04.982Z,9.82
2023-02-25T04:56:09.176Z,9.92
2023-02-25T05:00:24.353Z,9.98
2023-02-25T05:04:26.513Z,9.95
2023-02-25T05:08:29.237Z,9.92
2023-02-25T05:12:31.360Z,9.77
2023-02-25T05:16:33.608Z,9.81
2023-02-25T05:20:44.606Z,9.98
2023-02-25T05:24:46.777Z,10.05
2023-02-25T05:28:50.847Z,10.12
2023-02-25T05:32:53.389Z,10.21
2023-02-25T05:36:55.611Z,10.18
2023-02-25T05:41:00.817Z,10.07
2023-02-25T05:45:04.288Z,9.97
2023-02-25T05:49:06.864Z,9.87
2023-02-25T05:53:10.055Z,9.86
2023-02-25T05:57:12.510Z,9.95
2023-02-25T06:01:22.844Z,9.97
2023-02-25T06:05:25.225Z,10.00
2023-02-25T06:09:27.455Z,10.01
2023-02-25T06:13:30.064Z,10.03
2023-02-25T06:17:32.273Z,10.09
2023-02-25T06:21:35.917Z,10.10
2023-02-25T06:25:38.025Z,10.14
2023-02-25T06:29:41.945Z,10.18
2023-02-25T06:33:45.672Z,10.12
2023-02-25T06:37:47.779Z,10.23
2023-02-25T06:41:49.966Z,10.23
2023-02-25T06:45:52.093Z,10.25
2023-02-25T06:49:54.145Z,10.32
2023-02-25T06:53:56.287Z,10.37
2023-02-25T06:57:58.458Z,10.44
2023-02-25T07:02:01.041Z,10.55
2023-02-25T07:06:03.795Z,10.57
2023-02-25T07:10:06.511Z,10.66
2023-02-25T07:14:08.649Z,10.68
2023-02-25T07:18:11.316Z,10.78
2023-02-25T07:22:16.789Z,10.86
2023-02-25T07:26:19.036Z,10.95
2023-02-25T07:30:21.111Z,10.93
2023-02-25T07:34:25.990Z,10.99
2023-02-25T07:38:28.129Z,10.98
2023-02-25T07:42:30.659Z,11.10
2023-02-25T07:46:36.405Z,11.03
2023-02-25T07:50:38.488Z,11.12
2023-02-25T07:54:40.722Z,10.66
2023-02-25T07:58:42.910Z,10.68
2023-02-25T08:02:45.578Z,10.86
2023-02-25T08:06:47.759Z,10.99
2023-02-25T08:10:50.102Z,11.22
2023-02-25T08:14:52.246Z,11.46
2023-02-25T08:18:55.007Z,11.63
2023-02-25T08:22:57.164Z,11.74
2023-02-25T08:26:59.296Z,11.74
2023-02-25T08:31:01.564Z,11.87
2023-02-25T08:35:03.821Z,11.95
2023-02-25T08:39:06.086Z,11.86
2023-02-25T08:43:09.349Z,11.85
2023-02-25T08:47:11.435Z,11.96
2023-02-25T08:51:15.224Z,12.24
2023-02-25T08:55:18.209Z,12.30
2023-02-25T08:59:20.384Z,12.24
2023-02-25T09:03:22.499Z,12.14
2023-02-25T09:07:24.570Z,12.06
2023-02-25T09:11:26.937Z,12.03
2023-02-25T09:15:29.209Z,12.09
2023-02-25T09:19:32.636Z,12.16
2023-02-25T09:23:34.937Z,12.33
2023-02-25T09:27:37.416Z,12.53
2023-02-25T09:31:39.973Z,12.66
2023-02-25T09:35:42.854Z,12.63
2023-02-25T09:39:44.924Z,12.78
2023-02-25T09:43:49.290Z,12.76
2023-02-25T09:47:58.494Z,12.76
2023-02-25T09:52:07.888Z,12.68
2023-02-25T09:56:15.232Z,12.12
2023-02-25T10:00:19.008Z,12.02
2023-02-25T10:04:38.187Z,11.65
2023-02-25T10:09:03.519Z,11.22
2023-02-25T10:13:12.924Z,11.10
2023-02-25T10:17:31.291Z,11.00
2023-02-25T10:22:14.987Z,10.97
2023-02-25T10:26:27.769Z,11.13
2023-02-25T10:30:38.320Z,11.30
2023-02-25T10:34:41.956Z,11.28
2023-02-25T10:38:53.144Z,11.48
2023-02-25T10:43:00.850Z,11.71
2023-02-25T10:47:06.309Z,11.92
2023-02-25T10:51:16.430Z,12.04
2023-02-25T10:55:27.410Z,12.21
2023-02-25T10:59:38.652Z,12.12
2023-02-25T11:04:02.953Z,12.02
2023-02-25T11:08:18.305Z,12.14
2023-02-25T11:12:20.519Z,11.60
2023-02-25T11:16:22.710Z,11.39
2023-02-25T11:20:28.299Z,11.39
2023-02-25T11:24:34.709Z,11.33
2023-02-25T11:28:43.964Z,11.33
2023-02-25T11:32:54.197Z,11.46
2023-02-25T11:37:00.005Z,11.61
2023-02-25T11:41:03.206Z,11.71
2023-02-25T11:45:05.829Z,11.82
2023-02-25T11:49:22.278Z,11.81
2023-02-25T11:53:52.799Z,11.72
2023-02-25T11:58:10.206Z,11.69
2023-02-25T12:02:33.758Z,12.18
2023-02-25T12:06:58.171Z,12.72
2023-02-25T12:11:31.380Z,12.88
2023-02-25T12:16:01.965Z,13.37
2023-02-25T12:20:43.584Z,13.56
2023-02-25T12:25:04.432Z,13.73
2023-02-25T12:29:21.726Z,13.82
2023-02-25T12:33:45.439Z,13.93
2023-02-25T12:38:17.272Z,13.91
2023-02-25T12:42:44.377Z,13.80
2023-02-25T12:47:05.268Z,14.11
2023-02-25T12:51:22.194Z,14.36
2023-02-25T12:55:54.930Z,14.24
2023-02-25T13:00:17.452Z,13.79
2023-02-25T13:05:00.848Z,13.55
2023-02-25T13:09:07.276Z,13.29
2023-02-25T13:13:30.374Z,13.12
2023-02-25T13:17:50.968Z,13.24
2023-02-25T13:22:01.222Z,13.05
2023-02-25T13:26:30.338Z,12.95
2023-02-25T13:30:58.188Z,12.90
2023-02-25T13:35:18.890Z,12.61
2023-02-25T13:39:39.730Z,12.45
2023-02-25T13:44:19.187Z,12.29
2023-02-25T13:48:51.811Z,12.27
2023-02-25T13:53:26.642Z,12.33
2023-02-25T13:58:05.984Z,12.47
2023-02-25T14:02:42.377Z,12.42
2023-02-25T14:07:12.458Z,12.45
2023-02-25T14:11:57.776Z,12.42
2023-02-25T14:16:05.466Z,12.36
2023-02-25T14:20:21.226Z,12.27
2023-02-25T14:24:42.521Z,12.32
2023-02-25T14:28:54.086Z,12.34
2023-02-25T14:33:19.482Z,12.28
2023-02-25T14:37:59.330Z,12.29
2023-02-25T14:42:13.742Z,12.14
2023-02-25T14:46:45.234Z,12.17
2023-02-25T14:51:26.796Z,12.00
2023-02-25T14:56:06.821Z,12.04
2023-02-25T15:00:09.728Z,11.85
2023-02-25T15:04:17.845Z,11.78
2023-02-25T15:08:48.675Z,11.68
2023-02-25T15:13:00.574Z,11.67
2023-02-25T15:17:11.809Z,11.60
2023-02-25T15:21:37.425Z,11.50
2023-02-25T15:25:49.823Z,11.45
2023-02-25T15:30:06.101Z,11.51
2023-02-25T15:34:23.612Z,11.56
2023-02-25T15:38:40.045Z,11.58
2023-02-25T15:42:54.130Z,11.75
2023-02-25T15:47:11.205Z,11.84
2023-02-25T15:51:42.661Z,11.82
2023-02-25T15:55:45.054Z,11.94
2023-02-25T15:59:58.258Z,12.13
2023-02-25T16:04:01.201Z,12.13
2023-02-25T16:08:14.487Z,12.10
2023-02-25T16:12:17.801Z,12.02
2023-02-25T16:16:22.952Z,11.92
2023-02-25T16:20:33.106Z,11.96
2023-02-25T16:24:36.894Z,12.02
2023-02-25T16:29:03.515Z,12.08
2023-02-25T16:33:08.371Z,12.00
2023-02-25T16:37:20.337Z,11.95
2023-02-25T16:41:30.344Z,11.77
2023-02-25T16:45:53.379Z,11.88
2023-02-25T16:49:58.424Z,11.93
2023-02-25T16:54:19.902Z,11.90
2023-02-25T16:58:24.458Z,11.84
2023-02-25T17:02:26.588Z,11.77
2023-02-25T17:06:29.000Z,11.64
2023-02-25T17:10:43.792Z,11.50
2023-02-25T17:14:49.510Z,11.45
2023-02-25T17:18:57.609Z,11.44
2023-02-25T17:23:06.502Z,11.46
2023-02-25T17:27:12.521Z,11.24
2023-02-25T17:31:21.012Z,11.12
2023-02-25T17:35:23.476Z,11.06
2023-02-25T17:39:26.275Z,11.09
2023-02-25T17:43:47.127Z,11.07
2023-02-25T17:47:49.692Z,11.07
2023-02-25T17:51:55.618Z,11.10
2023-02-25T17:56:09.437Z,11.11
2023-02-25T18:00:24.727Z,11.22
2023-02-25T18:04:35.146Z,11.35
2023-02-25T18:08:55.724Z,11.30
2023-02-25T18:12:59.941Z,11.28
2023-02-25T18:17:12.743Z,11.45
2023-02-25T18:21:15.457Z,11.58
2023-02-25T18:25:39.037Z,11.70
2023-02-25T18:29:41.079Z,11.65
2023-02-25T18:33:43.312Z,11.71
2023-02-25T18:37:47.599Z,11.74
2023-02-25T18:41:49.658Z,11.73
2023-02-25T18:45:51.786Z,11.77
2023-02-25T18:49:53.979Z,11.80
2023-02-25T18:53:56.199Z,11.81
2023-02-25T18:57:58.883Z,11.82
2023-02-25T19:02:01.315Z,11.78
2023-02-25T19:06:04.486Z,11.75
2023-02-25T19:10:07.764Z,11.75
2023-02-25T19:14:17.972Z,11.68
2023-02-25T19:18:20.136Z,11.67
2023-02-25T19:22:22.851Z,11.72
2023-02-25T19:26:26.237Z,11.74
2023-02-25T19:30:35.807Z,11.74
2023-02-25T19:34:38.075Z,11.58
2023-02-25T19:38:40.362Z,11.45
2023-02-25T19:42:45.080Z,11.47
2023-02-25T19:46:47.318Z,11.48
2023-02-25T19:50:49.575Z,11.46
2023-02-25T19:54:51.676Z,11.55
2023-02-25T19:58:57.809Z,11.61
2023-02-25T20:02:59.890Z,11.66
2023-02-25T20:07:01.960Z,11.76
2023-02-25T20:11:09.546Z,11.80
2023-02-25T20:15:13.765Z,11.88
2023-02-25T20:19:16.020Z,11.92
2023-02-25T20:23:18.125Z,11.97
2023-02-25T20:27:20.312Z,11.99
2023-02-25T20:31:25.675Z,12.02
2023-02-25T20:35:28.939Z,12.07
2023-02-25T20:39:39.481Z,12.10
2023-02-25T20:43:41.762Z,12.09
2023-02-25T20:47:44.017Z,12.10
2023-02-25T20:51:47.711Z,12.17
2023-02-25T20:55:49.857Z,12.17
2023-02-25T20:59:53.952Z,12.14
2023-02-25T21:03:56.682Z,12.14
2023-02-25T21:07:58.774Z,12.14
2023-02-25T21:12:01.370Z,12.03
2023-02-25T21:16:06.327Z,11.78
2023-02-25T21:20:11.114Z,11.52
2023-02-25T21:24:15.288Z,11.40
2023-02-25T21:28:17.654Z,11.28
2023-02-25T21:32:19.862Z,11.28
2023-02-25T21:36:22.359Z,11.21
2023-02-25T21:40:24.635Z,11.22
2023-02-25T21:44:27.333Z,11.17
2023-02-25T21:48:31.250Z,11.26
2023-02-25T21:52:33.541Z,11.31
2023-02-25T21:56:35.720Z,11.32
2023-02-25T22:00:38.988Z,11.35
2023-02-25T22:04:41.162Z,11.33
2023-02-25T22:08:45.922Z,11.48
2023-02-25T22:12:47.993Z,11.54
2023-02-25T22:16:50.396Z,11.66
2023-02-25T22:20:53.299Z,11.63
2023-02-25T22:24:56.053Z,11.64
2023-02-25T22:29:02.006Z,11.66
2023-02-25T22:33:04.411Z,11.66
2023-02-25T22:37:06.641Z,11.72
2023-02-25T22:41:14.809Z,11.74
2023-02-25T22:45:17.539Z,11.74
2023-02-25T22:49:19.738Z,11.62
2023-02-25T22:53:22.379Z,11.56
2023-02-25T22:57:24.524Z,11.58
2023-02-25T23:01:27.402Z,11.63
2023-02-25T23:05:29.599Z,11.67
2023-02-25T23:09:31.626Z,11.69
2023-02-25T23:13:33.716Z,11.66
2023-02-25T23:17:35.935Z,11.66
2023-02-25T23:21:41.142Z,11.64
2023-02-25T23:25:43.360Z,11.47
2023-02-25T23:29:45.475Z,11.50
2023-02-25T23:33:48.347Z,11.25
2023-02-25T23:37:50.845Z,11.33
2023-02-25T23:41:53.082Z,11.24
2023-02-25T23:45:55.527Z,11.35
2023-02-25T23:49:57.989Z,11.40
2023-02-25T23:54:04.093Z,11.42
2023-02-25T23:58:06.356Z,11.53
